Time;durP1;ratioP1;P1;durP2;ratioP2;P2;SDS_P1;SDS_P2;PMS_P1;PMS_P2;Temp;Humidity;BMP_temperature;BMP_pressure;BME280_temperature;BME280_humidity;BME280_pressure;Samples;Min_cycle;Max_cycle;Signal;HPM_P1;HPM_P2
2021/09/11 00:01:22;;;;;;;;;;;19.40;99.90;;;;;;5053364;28;20509;-75
2021/09/11 00:03:47;;;;;;;;;;;19.40;99.90;;;;;;5049570;28;19916;-75
2021/09/11 00:06:13;;;;;;;;;;;19.40;99.90;;;;;;5048655;28;19924;-75
2021/09/11 00:08:38;;;;;;;;;;;19.40;99.90;;;;;;5056007;28;19920;-75
2021/09/11 00:11:04;;;;;;;;;;;19.40;99.90;;;;;;5056471;28;19947;-75
2021/09/11 00:13:29;;;;;;;;;;;19.40;99.90;;;;;;5057095;28;20023;-75
2021/09/11 00:15:54;;;;;;;;;;;19.30;99.90;;;;;;5072145;22;19931;-75
2021/09/11 00:18:20;;;;;;;;;;;19.30;99.90;;;;;;5040131;28;19912;-76
2021/09/11 00:20:45;;;;;;;;;;;19.30;99.90;;;;;;5065385;28;19928;-75
2021/09/11 00:23:11;;;;;;;;;;;19.30;99.90;;;;;;5065201;28;19919;-76
2021/09/11 00:25:37;;;;;;;;;;;19.30;99.90;;;;;;5040536;28;19916;-75
2021/09/11 00:28:02;;;;;;;;;;;19.30;99.90;;;;;;5057805;28;20351;-75
2021/09/11 00:30:28;;;;;;;;;;;19.30;99.90;;;;;;5054464;28;20288;-75
2021/09/11 00:32:53;;;;;;;;;;;19.30;99.90;;;;;;5033752;28;20060;-74
2021/09/11 00:35:19;;;;;;;;;;;19.30;99.90;;;;;;5056704;28;19998;-75
2021/09/11 00:37:45;;;;;;;;;;;19.30;99.90;;;;;;5050360;28;20306;-75
2021/09/11 00:40:11;;;;;;;;;;;19.20;99.90;;;;;;5060755;28;19913;-75
2021/09/11 00:42:37;;;;;;;;;;;19.30;99.90;;;;;;5058462;28;19916;-75
2021/09/11 00:45:04;;;;;;;;;;;19.20;99.90;;;;;;5056364;28;20537;-75
2021/09/11 00:47:29;;;;;;;;;;;19.20;99.90;;;;;;5058833;28;20321;-75
2021/09/11 00:49:55;;;;;;;;;;;19.20;99.90;;;;;;5058450;28;19962;-75
2021/09/11 00:52:21;;;;;;;;;;;19.20;99.90;;;;;;5057387;28;19913;-75
2021/09/11 00:54:47;;;;;;;;;;;19.20;99.90;;;;;;5059528;28;19916;-75
2021/09/11 00:57:12;;;;;;;;;;;19.20;99.90;;;;;;5057515;28;20015;-75
2021/09/11 00:59:38;;;;;;;;;;;19.10;99.90;;;;;;5058566;28;20011;-75
2021/09/11 01:02:04;;;;;;;;;;;19.20;99.90;;;;;;5057258;28;20327;-75
2021/09/11 01:04:29;;;;;;;;;;;19.20;99.90;;;;;;5059414;28;19916;-75
2021/09/11 01:06:55;;;;;;;;;;;19.10;99.90;;;;;;5039067;28;20718;-75
2021/09/11 01:09:21;;;;;;;;;;;19.10;99.90;;;;;;5057557;28;20424;-75
2021/09/11 01:11:46;;;;;;;;;;;19.10;99.90;;;;;;5057339;28;19948;-75
2021/09/11 01:14:12;;;;;;;;;;;19.10;99.90;;;;;;5058032;28;19992;-75
2021/09/11 01:16:37;;;;;;;;;;;19.10;99.90;;;;;;5060020;28;20011;-75
2021/09/11 01:19:02;;;;;;;;;;;19.10;99.90;;;;;;5058605;28;20008;-74
2021/09/11 01:21:28;;;;;;;;;;;19.10;99.90;;;;;;5057000;28;19916;-75
2021/09/11 01:23:53;;;;;;;;;;;19.10;99.90;;;;;;5039260;28;19924;-75
2021/09/11 01:26:19;;;;;;;;;;;19.10;99.90;;;;;;5055772;28;20070;-75
2021/09/11 01:28:44;;;;;;;;;;;19.10;99.90;;;;;;5059255;28;19913;-74
2021/09/11 01:31:10;;;;;;;;;;;19.00;99.90;;;;;;5040523;28;19917;-75
2021/09/11 01:33:35;;;;;;;;;;;19.10;99.90;;;;;;5059604;28;19920;-75
2021/09/11 01:36:01;;;;;;;;;;;19.10;99.90;;;;;;5040622;28;19928;-75
2021/09/11 01:38:26;;;;;;;;;;;19.10;99.90;;;;;;5059904;28;19913;-75
2021/09/11 01:40:52;;;;;;;;;;;19.10;99.90;;;;;;5057798;28;19969;-75
2021/09/11 01:43:25;;;;;;;;;;;19.10;99.90;;;;;;5057855;28;19952;-75
2021/09/11 01:45:52;;;;;;;;;;;19.10;99.90;;;;;;5057983;28;19924;-75
2021/09/11 01:48:17;;;;;;;;;;;19.10;99.90;;;;;;5058162;28;19916;-75
2021/09/11 01:50:42;;;;;;;;;;;19.10;99.90;;;;;;5057612;28;19917;-75
2021/09/11 01:53:08;;;;;;;;;;;19.10;99.90;;;;;;5058149;28;19915;-75
2021/09/11 01:55:33;;;;;;;;;;;19.10;99.90;;;;;;5023687;28;19935;-75
2021/09/11 01:57:59;;;;;;;;;;;19.10;99.90;;;;;;5057567;28;19920;-75
2021/09/11 02:00:24;;;;;;;;;;;19.10;99.90;;;;;;5057807;28;19917;-75
2021/09/11 02:02:50;;;;;;;;;;;19.10;99.90;;;;;;5039858;28;19917;-75
2021/09/11 02:05:15;;;;;;;;;;;19.00;99.90;;;;;;5056783;28;19958;-75
2021/09/11 02:07:41;;;;;;;;;;;19.00;99.90;;;;;;5057161;28;19979;-75
2021/09/11 02:10:07;;;;;;;;;;;19.10;99.90;;;;;;5059263;28;19948;-75
2021/09/11 02:12:33;;;;;;;;;;;19.00;99.90;;;;;;5039445;28;20027;-75
2021/09/11 02:14:58;;;;;;;;;;;19.00;99.90;;;;;;5058006;28;19921;-75
2021/09/11 02:17:24;;;;;;;;;;;19.00;99.90;;;;;;5056676;28;20267;-75
2021/09/11 02:19:49;;;;;;;;;;;19.00;99.90;;;;;;5041040;28;20088;-75
2021/09/11 02:22:14;;;;;;;;;;;19.00;99.90;;;;;;5038577;28;20366;-75
2021/09/11 02:24:40;;;;;;;;;;;19.00;99.90;;;;;;5041245;28;19912;-75
2021/09/11 02:27:06;;;;;;;;;;;19.00;99.90;;;;;;5040635;28;19920;-75
2021/09/11 02:29:32;;;;;;;;;;;19.00;99.90;;;;;;5054063;28;20413;-75
2021/09/11 02:31:58;;;;;;;;;;;19.00;99.90;;;;;;5058905;28;19946;-75
2021/09/11 02:34:23;;;;;;;;;;;18.90;99.90;;;;;;5055742;28;20478;-76
2021/09/11 02:36:48;;;;;;;;;;;18.90;99.90;;;;;;5052865;28;19921;-76
2021/09/11 02:39:14;;;;;;;;;;;18.90;99.90;;;;;;5039768;28;19908;-76
2021/09/11 02:41:39;;;;;;;;;;;18.90;99.90;;;;;;5037747;28;20421;-76
2021/09/11 02:44:05;;;;;;;;;;;18.90;99.90;;;;;;5039426;28;20402;-76
2021/09/11 02:46:31;;;;;;;;;;;18.90;99.90;;;;;;5056283;28;19913;-76
2021/09/11 02:48:57;;;;;;;;;;;18.90;99.90;;;;;;5057518;28;19920;-76
2021/09/11 02:51:25;;;;;;;;;;;18.90;99.90;;;;;;5058084;28;20461;-76
2021/09/11 02:53:51;;;;;;;;;;;18.90;99.90;;;;;;5054610;28;19923;-75
2021/09/11 02:56:16;;;;;;;;;;;18.90;99.90;;;;;;5056903;28;19920;-75
2021/09/11 02:58:42;;;;;;;;;;;18.90;99.90;;;;;;5057561;28;19913;-75
2021/09/11 03:01:07;;;;;;;;;;;18.80;99.90;;;;;;5054688;28;20006;-76
2021/09/11 03:03:33;;;;;;;;;;;18.80;99.90;;;;;;5057577;28;19913;-76
2021/09/11 03:05:58;;;;;;;;;;;18.80;99.90;;;;;;5055719;28;19923;-75
2021/09/11 03:08:24;;;;;;;;;;;18.80;99.90;;;;;;5057536;28;19913;-75
2021/09/11 03:10:49;;;;;;;;;;;18.80;99.90;;;;;;5053417;28;19912;-75
2021/09/11 03:13:15;;;;;;;;;;;18.80;99.90;;;;;;5055665;28;19917;-75
2021/09/11 03:15:40;;;;;;;;;;;18.80;99.90;;;;;;5057350;28;20031;-76
2021/09/11 03:18:06;;;;;;;;;;;18.80;99.90;;;;;;5057535;28;19920;-75
2021/09/11 03:20:31;;;;;;;;;;;18.80;99.90;;;;;;5058429;28;19909;-76
2021/09/11 03:22:57;;;;;;;;;;;18.70;99.90;;;;;;5054869;28;19916;-75
2021/09/11 03:25:22;;;;;;;;;;;18.80;99.90;;;;;;5057496;28;20023;-75
2021/09/11 03:27:47;;;;;;;;;;;18.70;99.90;;;;;;5057131;28;19917;-76
2021/09/11 03:30:13;;;;;;;;;;;18.70;99.90;;;;;;5055160;28;20225;-77
2021/09/11 03:32:38;;;;;;;;;;;18.60;99.90;;;;;;5036560;28;19995;-76
2021/09/11 03:35:04;;;;;;;;;;;18.60;99.90;;;;;;5056334;28;19917;-75
2021/09/11 03:37:29;;;;;;;;;;;18.60;99.90;;;;;;5022563;28;19920;-75
2021/09/11 03:39:55;;;;;;;;;;;18.60;99.90;;;;;;5039005;28;19920;-75
2021/09/11 03:42:20;;;;;;;;;;;18.60;99.90;;;;;;5056599;28;19912;-75
2021/09/11 03:44:46;;;;;;;;;;;18.60;99.90;;;;;;5056331;28;20443;-75
2021/09/11 03:47:11;;;;;;;;;;;18.50;99.90;;;;;;5055192;28;20000;-75
2021/09/11 03:49:37;;;;;;;;;;;18.50;99.90;;;;;;5055851;28;19951;-75
2021/09/11 03:52:02;;;;;;;;;;;18.50;99.90;;;;;;5057931;28;19996;-75
2021/09/11 03:54:27;;;;;;;;;;;18.50;99.90;;;;;;5037561;28;20152;-75
2021/09/11 03:56:53;;;;;;;;;;;18.50;99.90;;;;;;5057764;28;19963;-75
2021/09/11 03:59:18;;;;;;;;;;;18.50;99.90;;;;;;5055299;28;19963;-75
2021/09/11 04:01:44;;;;;;;;;;;18.40;99.90;;;;;;5053123;28;20000;-75
2021/09/11 04:04:09;;;;;;;;;;;18.40;99.90;;;;;;5054485;28;19927;-75
2021/09/11 04:06:34;;;;;;;;;;;18.40;99.90;;;;;;5057203;28;20011;-75
2021/09/11 04:09:00;;;;;;;;;;;18.40;99.90;;;;;;5057384;28;19916;-75
2021/09/11 04:11:25;;;;;;;;;;;18.40;99.90;;;;;;5058540;28;19920;-75
2021/09/11 04:13:51;;;;;;;;;;;18.40;99.90;;;;;;5060210;28;19917;-75
2021/09/11 04:16:16;;;;;;;;;;;18.30;99.90;;;;;;5060017;28;19916;-75
2021/09/11 04:18:41;;;;;;;;;;;18.40;99.90;;;;;;5061774;28;20360;-75
2021/09/11 04:21:07;;;;;;;;;;;18.30;99.90;;;;;;5039055;28;20367;-75
2021/09/11 04:23:33;;;;;;;;;;;18.30;99.90;;;;;;5059938;28;20431;-75
2021/09/11 04:25:58;;;;;;;;;;;18.30;99.90;;;;;;5040741;28;19948;-75
2021/09/11 04:28:24;;;;;;;;;;;18.30;99.90;;;;;;5060270;28;19908;-75
2021/09/11 04:30:49;;;;;;;;;;;18.20;99.90;;;;;;5059121;28;19918;-75
2021/09/11 04:33:15;;;;;;;;;;;18.20;99.90;;;;;;5061019;28;19913;-75
2021/09/11 04:35:40;;;;;;;;;;;18.20;99.90;;;;;;5057100;28;20018;-75
2021/09/11 04:38:06;;;;;;;;;;;18.10;99.90;;;;;;5059321;28;19999;-75
2021/09/11 04:40:31;;;;;;;;;;;18.10;99.90;;;;;;5042899;28;20005;-75
2021/09/11 04:42:56;;;;;;;;;;;18.10;99.90;;;;;;5042210;28;19919;-75
2021/09/11 04:45:22;;;;;;;;;;;18.10;99.90;;;;;;5057460;28;19927;-75
2021/09/11 04:47:48;;;;;;;;;;;18.10;99.90;;;;;;5059577;28;20011;-75
2021/09/11 04:50:13;;;;;;;;;;;18.10;99.90;;;;;;5041142;28;19955;-75
2021/09/11 04:52:38;;;;;;;;;;;18.00;99.90;;;;;;5056132;28;20020;-75
2021/09/11 04:55:07;;;;;;;;;;;18.00;99.90;;;;;;5057174;28;19935;-75
2021/09/11 04:57:33;;;;;;;;;;;18.00;99.90;;;;;;5054755;28;20045;-75
2021/09/11 04:59:58;;;;;;;;;;;18.00;99.90;;;;;;5060345;28;20326;-75
2021/09/11 05:02:24;;;;;;;;;;;18.00;99.90;;;;;;5058904;28;20375;-75
2021/09/11 05:04:49;;;;;;;;;;;18.00;99.90;;;;;;5058604;28;19920;-75
2021/09/11 05:07:15;;;;;;;;;;;18.00;99.90;;;;;;5059278;28;19916;-75
2021/09/11 05:09:40;;;;;;;;;;;18.00;99.90;;;;;;5055806;28;19936;-75
2021/09/11 05:12:07;;;;;;;;;;;17.90;99.90;;;;;;5056376;28;19973;-75
2021/09/11 05:14:32;;;;;;;;;;;17.90;99.90;;;;;;5039224;28;19916;-75
2021/09/11 05:16:58;;;;;;;;;;;17.90;99.90;;;;;;5058620;28;19921;-75
2021/09/11 05:19:24;;;;;;;;;;;17.90;99.90;;;;;;5039919;28;19921;-75
2021/09/11 05:21:49;;;;;;;;;;;18.00;99.90;;;;;;5056177;28;19927;-75
2021/09/11 05:24:16;;;;;;;;;;;18.00;99.90;;;;;;5057585;28;19935;-75
2021/09/11 05:26:42;;;;;;;;;;;17.90;99.90;;;;;;5058748;28;19917;-77
2021/09/11 05:29:07;;;;;;;;;;;17.90;99.90;;;;;;5054919;28;19917;-75
2021/09/11 05:31:32;;;;;;;;;;;18.00;99.90;;;;;;5057128;28;19913;-75
2021/09/11 05:33:58;;;;;;;;;;;18.00;99.90;;;;;;5054556;28;19924;-75
2021/09/11 05:36:23;;;;;;;;;;;18.00;99.90;;;;;;5057187;28;20351;-74
2021/09/11 05:38:49;;;;;;;;;;;18.00;99.90;;;;;;5057884;28;19920;-75
2021/09/11 05:41:14;;;;;;;;;;;18.00;99.90;;;;;;5058227;28;20399;-75
2021/09/11 05:43:40;;;;;;;;;;;18.00;99.90;;;;;;5057004;28;19913;-75
2021/09/11 05:46:05;;;;;;;;;;;18.10;99.90;;;;;;5058284;28;20438;-75
2021/09/11 05:48:30;;;;;;;;;;;18.10;99.90;;;;;;5058315;28;19940;-75
2021/09/11 05:50:56;;;;;;;;;;;18.10;99.90;;;;;;5059729;28;20302;-75
2021/09/11 05:53:21;;;;;;;;;;;18.10;99.90;;;;;;5039416;28;20345;-75
2021/09/11 05:55:47;;;;;;;;;;;18.20;99.90;;;;;;5057503;28;19913;-75
2021/09/11 05:58:12;;;;;;;;;;;18.20;99.90;;;;;;5059780;28;19909;-75
2021/09/11 06:00:38;;;;;;;;;;;18.30;99.90;;;;;;5053492;28;20186;-74
2021/09/11 06:03:03;;;;;;;;;;;18.30;99.90;;;;;;5058483;28;20325;-75
2021/09/11 06:05:29;;;;;;;;;;;18.40;99.90;;;;;;5058525;28;19917;-75
2021/09/11 06:07:54;;;;;;;;;;;18.50;99.90;;;;;;5038197;28;19927;-74
2021/09/11 06:10:19;;;;;;;;;;;18.50;99.90;;;;;;5059762;28;20263;-74
2021/09/11 06:12:45;;;;;;;;;;;18.50;99.90;;;;;;5058281;28;19917;-75
2021/09/11 06:15:12;;;;;;;;;;;18.60;99.90;;;;;;5073132;22;19943;-62
2021/09/11 06:17:38;;;;;;;;;;;18.70;99.90;;;;;;5064675;28;19924;-61
2021/09/11 06:20:04;;;;;;;;;;;18.70;99.90;;;;;;5061372;28;19912;-61
2021/09/11 06:22:29;;;;;;;;;;;18.80;99.90;;;;;;5062590;28;20593;-61
2021/09/11 06:24:55;;;;;;;;;;;18.90;99.90;;;;;;5061741;28;19927;-61
2021/09/11 06:27:20;;;;;;;;;;;18.90;99.90;;;;;;5066316;28;20365;-61
2021/09/11 06:29:45;;;;;;;;;;;19.00;99.90;;;;;;5066284;28;20365;-61
2021/09/11 06:32:11;;;;;;;;;;;19.10;99.90;;;;;;5058791;28;19952;-61
2021/09/11 06:34:36;;;;;;;;;;;19.20;99.90;;;;;;5042715;28;19921;-61
2021/09/11 06:37:02;;;;;;;;;;;19.20;99.90;;;;;;5067953;28;19928;-62
2021/09/11 06:39:27;;;;;;;;;;;19.30;99.90;;;;;;5066400;28;19913;-61
2021/09/11 06:41:54;;;;;;;;;;;19.30;99.90;;;;;;5062917;28;19922;-61
2021/09/11 06:44:19;;;;;;;;;;;19.30;99.90;;;;;;5062312;28;20494;-62
2021/09/11 06:46:45;;;;;;;;;;;19.40;99.90;;;;;;5067468;28;19924;-62
2021/09/11 06:49:10;;;;;;;;;;;19.40;99.90;;;;;;5068511;28;19912;-61
2021/09/11 06:51:36;;;;;;;;;;;19.60;99.90;;;;;;5065856;28;19916;-62
2021/09/11 06:54:01;;;;;;;;;;;19.70;99.90;;;;;;5067371;28;19913;-62
2021/09/11 06:56:27;;;;;;;;;;;19.70;99.90;;;;;;5067569;28;19925;-62
2021/09/11 06:58:52;;;;;;;;;;;19.80;99.90;;;;;;5068256;28;19995;-61
2021/09/11 07:01:20;;;;;;;;;;;19.80;99.90;;;;;;5065550;28;19923;-62
2021/09/11 07:03:45;;;;;;;;;;;19.90;99.90;;;;;;5069686;28;19955;-62
2021/09/11 07:06:11;;;;;;;;;;;20.00;99.90;;;;;;5064790;28;19960;-62
2021/09/11 07:08:36;;;;;;;;;;;20.10;99.90;;;;;;5069316;28;20058;-61
2021/09/11 07:11:02;;;;;;;;;;;20.20;99.90;;;;;;5067906;28;19912;-62
2021/09/11 07:13:27;;;;;;;;;;;20.20;99.80;;;;;;5068049;28;20219;-61
2021/09/11 07:15:53;;;;;;;;;;;20.30;99.70;;;;;;5067134;28;19923;-61
2021/09/11 07:18:18;;;;;;;;;;;20.50;99.70;;;;;;5069486;28;19962;-62
2021/09/11 07:20:43;;;;;;;;;;;20.60;99.60;;;;;;5069895;28;19916;-62
2021/09/11 07:23:09;;;;;;;;;;;20.70;99.50;;;;;;5062911;28;19913;-61
2021/09/11 07:25:34;;;;;;;;;;;20.80;99.30;;;;;;5065012;28;19923;-62
2021/09/11 07:28:00;;;;;;;;;;;20.90;99.10;;;;;;5067089;28;20050;-62
2021/09/11 07:30:25;;;;;;;;;;;20.90;99.00;;;;;;5048680;28;19928;-62
2021/09/11 07:32:51;;;;;;;;;;;20.90;99.20;;;;;;5066204;28;19908;-62
2021/09/11 07:35:16;;;;;;;;;;;21.00;98.80;;;;;;5066409;28;19928;-62
2021/09/11 07:37:42;;;;;;;;;;;21.00;98.70;;;;;;5066818;28;19917;-62
2021/09/11 07:40:08;;;;;;;;;;;20.90;98.70;;;;;;5042026;28;19912;-61
2021/09/11 07:42:34;;;;;;;;;;;20.90;98.70;;;;;;5062722;28;19916;-62
2021/09/11 07:44:59;;;;;;;;;;;20.90;98.80;;;;;;5064170;28;19916;-61
2021/09/11 07:47:25;;;;;;;;;;;20.80;98.70;;;;;;5068953;28;19924;-61
2021/09/11 07:49:50;;;;;;;;;;;20.90;98.80;;;;;;5048419;28;20391;-62
2021/09/11 07:52:16;;;;;;;;;;;20.90;98.70;;;;;;5065176;28;19944;-61
2021/09/11 07:54:42;;;;;;;;;;;20.90;98.90;;;;;;5065246;28;19912;-60
2021/09/11 07:57:07;;;;;;;;;;;21.10;99.10;;;;;;5065674;28;19912;-61
2021/09/11 07:59:33;;;;;;;;;;;21.20;98.90;;;;;;5064598;28;19966;-62
2021/09/11 08:01:58;;;;;;;;;;;21.30;98.80;;;;;;5062419;28;19912;-62
2021/09/11 08:04:23;;;;;;;;;;;21.40;98.70;;;;;;5062944;28;19912;-62
2021/09/11 08:06:49;;;;;;;;;;;21.50;98.60;;;;;;5066899;28;20376;-62
2021/09/11 08:09:14;;;;;;;;;;;21.60;98.20;;;;;;5064816;28;20011;-62
2021/09/11 08:11:40;;;;;;;;;;;21.60;98.20;;;;;;5064172;28;19955;-62
2021/09/11 08:14:07;;;;;;;;;;;21.60;98.30;;;;;;5063848;28;19913;-62
2021/09/11 08:16:32;;;;;;;;;;;21.70;98.10;;;;;;5065193;28;19926;-62
2021/09/11 08:18:58;;;;;;;;;;;21.70;98.00;;;;;;5063494;28;19912;-63
2021/09/11 08:21:23;;;;;;;;;;;21.70;97.90;;;;;;5064115;28;19912;-62
2021/09/11 08:23:49;;;;;;;;;;;21.70;97.80;;;;;;5061171;28;20475;-62
2021/09/11 08:26:15;;;;;;;;;;;21.80;97.60;;;;;;5055857;28;19958;-61
2021/09/11 08:28:40;;;;;;;;;;;21.70;97.50;;;;;;5060987;28;19923;-61
2021/09/11 08:31:06;;;;;;;;;;;21.80;97.70;;;;;;5042284;28;20433;-62
2021/09/11 08:33:32;;;;;;;;;;;21.80;97.60;;;;;;5059630;28;19938;-62
2021/09/11 08:35:57;;;;;;;;;;;21.90;97.50;;;;;;5056276;28;19967;-61
2021/09/11 08:38:23;;;;;;;;;;;21.90;97.10;;;;;;5063550;28;20009;-61
2021/09/11 08:40:49;;;;;;;;;;;21.80;97.10;;;;;;5066486;28;19935;-61
2021/09/11 08:43:16;;;;;;;;;;;21.70;97.20;;;;;;5066831;28;20353;-61
2021/09/11 08:45:42;;;;;;;;;;;21.70;97.20;;;;;;5065521;28;20970;-61
2021/09/11 08:48:07;;;;;;;;;;;21.60;97.20;;;;;;5063167;28;19970;-61
2021/09/11 08:50:33;;;;;;;;;;;21.60;97.20;;;;;;5064801;28;19917;-61
2021/09/11 08:52:58;;;;;;;;;;;21.60;97.20;;;;;;5064937;28;20003;-61
2021/09/11 08:55:23;;;;;;;;;;;21.70;97.10;;;;;;5064076;28;19924;-61
2021/09/11 08:57:57;;;;;;;;;;;21.70;97.10;;;;;;5068496;28;20416;-61
2021/09/11 09:00:34;;;;;;;;;;;21.80;97.00;;;;;;5069151;28;20011;-61
2021/09/11 09:03:00;;;;;;;;;;;21.80;96.80;;;;;;5069634;28;19942;-61
2021/09/11 09:05:26;;;;;;;;;;;21.90;96.90;;;;;;5066341;28;19913;-61
2021/09/11 09:07:52;;;;;;;;;;;22.00;96.90;;;;;;5069720;28;20294;-62
2021/09/11 09:10:18;;;;;;;;;;;22.00;96.80;;;;;;5068874;28;19992;-61
2021/09/11 09:12:44;;;;;;;;;;;22.00;96.60;;;;;;5069738;28;19913;-61
2021/09/11 09:15:11;;;;;;;;;;;22.00;96.60;;;;;;5069600;28;20003;-61
2021/09/11 09:17:39;;;;;;;;;;;22.00;96.50;;;;;;5069130;28;21270;-61
2021/09/11 09:20:16;;;;;;;;;;;22.00;96.40;;;;;;5067337;28;19912;-61
2021/09/11 09:22:42;;;;;;;;;;;22.00;96.30;;;;;;5067860;28;19952;-61
2021/09/11 09:25:20;;;;;;;;;;;22.00;96.50;;;;;;5068286;28;19960;-61
2021/09/11 09:27:54;;;;;;;;;;;22.10;96.50;;;;;;5051713;28;20229;-61
2021/09/11 09:30:24;;;;;;;;;;;22.20;96.40;;;;;;5069404;28;19908;-61
2021/09/11 09:32:50;;;;;;;;;;;22.30;96.40;;;;;;5069341;28;20436;-61
2021/09/11 09:35:16;;;;;;;;;;;22.40;96.30;;;;;;5068541;28;19913;-61
2021/09/11 09:37:55;;;;;;;;;;;22.60;96.10;;;;;;5068773;28;19920;-61
2021/09/11 09:40:34;;;;;;;;;;;22.60;95.50;;;;;;5066323;28;19919;-61
2021/09/11 09:43:00;;;;;;;;;;;22.60;95.50;;;;;;5069195;28;19912;-61
2021/09/11 09:45:30;;;;;;;;;;;22.80;95.60;;;;;;5069308;28;19919;-61
2021/09/11 09:48:02;;;;;;;;;;;23.00;95.60;;;;;;5069605;28;20250;-61
2021/09/11 09:50:29;;;;;;;;;;;23.20;95.30;;;;;;5069677;28;19921;-61
2021/09/11 09:52:54;;;;;;;;;;;23.40;95.10;;;;;;5068592;28;19944;-61
2021/09/11 09:55:20;;;;;;;;;;;23.40;95.00;;;;;;5065282;28;20009;-61
2021/09/11 09:57:47;;;;;;;;;;;23.50;94.60;;;;;;5069415;28;20019;-61
2021/09/11 10:00:13;;;;;;;;;;;23.60;94.20;;;;;;5069787;28;20469;-61
2021/09/11 10:02:39;;;;;;;;;;;23.70;93.90;;;;;;5068772;28;19960;-61
2021/09/11 10:05:05;;;;;;;;;;;23.80;93.60;;;;;;5068922;28;20233;-61
2021/09/11 10:07:30;;;;;;;;;;;23.90;93.80;;;;;;5068757;28;20386;-61
2021/09/11 10:09:56;;;;;;;;;;;24.00;93.20;;;;;;5066694;28;19938;-61
2021/09/11 10:12:29;;;;;;;;;;;24.00;93.20;;;;;;5066969;28;19912;-61
2021/09/11 10:15:14;;;;;;;;;;;24.10;92.50;;;;;;5067732;28;19912;-61
2021/09/11 10:17:40;;;;;;;;;;;24.00;92.70;;;;;;5068114;28;19917;-61
2021/09/11 10:20:05;;;;;;;;;;;23.90;92.30;;;;;;5067615;28;20281;-61
2021/09/11 10:22:31;;;;;;;;;;;23.70;92.60;;;;;;5067866;28;20026;-61
2021/09/11 10:25:00;;;;;;;;;;;23.40;92.40;;;;;;5064936;28;20143;-61
2021/09/11 10:27:32;;;;;;;;;;;23.00;94.40;;;;;;5048627;28;19912;-61
2021/09/11 10:29:57;;;;;;;;;;;22.80;95.80;;;;;;5067772;28;19916;-61
2021/09/11 10:32:24;;;;;;;;;;;22.50;96.40;;;;;;5066721;28;19909;-61
2021/09/11 10:34:53;;;;;;;;;;;22.20;96.70;;;;;;5067081;28;19909;-61
2021/09/11 10:37:24;;;;;;;;;;;22.00;97.20;;;;;;5067164;28;20024;-61
2021/09/11 10:40:08;;;;;;;;;;;21.80;97.60;;;;;;5067290;28;19908;-61
2021/09/11 10:42:54;;;;;;;;;;;21.60;97.80;;;;;;5064644;28;20277;-61
2021/09/11 10:45:36;;;;;;;;;;;21.60;98.10;;;;;;5066536;28;20384;-61
2021/09/11 10:48:05;;;;;;;;;;;21.50;98.30;;;;;;5065701;28;20359;-61
2021/09/11 10:50:37;;;;;;;;;;;21.50;98.40;;;;;;5066629;28;20358;-61
2021/09/11 10:53:17;;;;;;;;;;;21.50;98.60;;;;;;5066514;28;20066;-61
2021/09/11 10:55:43;;;;;;;;;;;21.50;98.80;;;;;;5066177;28;20882;-61
2021/09/11 10:58:21;;;;;;;;;;;21.50;98.50;;;;;;5065800;28;20007;-61
2021/09/11 11:01:00;;;;;;;;;;;21.60;98.50;;;;;;5046093;28;19916;-61
2021/09/11 11:03:25;;;;;;;;;;;21.60;98.50;;;;;;5065148;28;20246;-61
2021/09/11 11:06:01;;;;;;;;;;;21.70;98.50;;;;;;5066129;28;19912;-61
2021/09/11 11:08:28;;;;;;;;;;;21.70;98.40;;;;;;5066199;28;19951;-61
2021/09/11 11:10:53;;;;;;;;;;;21.80;98.40;;;;;;5066374;28;19913;-61
2021/09/11 11:13:19;;;;;;;;;;;21.80;98.30;;;;;;5065959;28;19977;-61
2021/09/11 11:15:51;;;;;;;;;;;21.80;98.20;;;;;;5065704;28;19927;-61
2021/09/11 11:18:17;;;;;;;;;;;21.80;98.20;;;;;;5063555;28;19962;-61
2021/09/11 11:20:42;;;;;;;;;;;21.90;98.30;;;;;;5065544;28;19924;-61
2021/09/11 11:23:08;;;;;;;;;;;21.90;98.30;;;;;;5065445;28;20033;-61
2021/09/11 11:25:36;;;;;;;;;;;22.00;98.30;;;;;;5065689;28;19963;-61
2021/09/11 11:28:02;;;;;;;;;;;22.00;98.20;;;;;;5065357;28;19974;-61
2021/09/11 11:30:28;;;;;;;;;;;22.20;98.10;;;;;;5066633;28;20265;-61
2021/09/11 11:32:53;;;;;;;;;;;22.30;98.10;;;;;;5066273;28;19908;-61
2021/09/11 11:35:19;;;;;;;;;;;22.40;97.90;;;;;;5063749;28;19913;-61
2021/09/11 11:37:44;;;;;;;;;;;22.50;97.50;;;;;;5065649;28;19912;-60
2021/09/11 11:40:11;;;;;;;;;;;22.60;97.50;;;;;;5067038;28;19939;-61
2021/09/11 11:42:38;;;;;;;;;;;22.70;97.50;;;;;;5047743;28;19916;-61
2021/09/11 11:45:05;;;;;;;;;;;22.80;97.10;;;;;;5066430;28;19912;-61
2021/09/11 11:47:36;;;;;;;;;;;22.90;96.50;;;;;;5066146;28;20031;-61
2021/09/11 11:50:23;;;;;;;;;;;23.10;96.50;;;;;;5067255;28;19912;-60
2021/09/11 11:52:57;;;;;;;;;;;23.20;95.80;;;;;;5065035;28;20429;-61
2021/09/11 11:55:23;;;;;;;;;;;23.40;95.50;;;;;;5062197;28;19916;-61
2021/09/11 11:57:49;;;;;;;;;;;23.50;95.50;;;;;;5065592;28;20001;-62
2021/09/11 12:00:16;;;;;;;;;;;23.60;95.30;;;;;;5066124;28;19908;-61
2021/09/11 12:02:50;;;;;;;;;;;23.60;93.70;;;;;;5065123;28;19913;-61
2021/09/11 12:05:18;;;;;;;;;;;23.50;93.60;;;;;;5056963;28;19912;-61
2021/09/11 12:07:57;;;;;;;;;;;23.30;94.10;;;;;;5061945;28;20483;-61
2021/09/11 12:10:24;;;;;;;;;;;23.10;94.30;;;;;;5062279;28;19919;-62
2021/09/11 12:12:50;;;;;;;;;;;22.90;94.00;;;;;;5041593;28;19920;-61
2021/09/11 12:15:20;;;;;;;;;;;22.80;94.10;;;;;;5086522;22;19912;-74
2021/09/11 12:17:59;;;;;;;;;;;22.60;94.20;;;;;;5064010;28;20336;-75
2021/09/11 12:20:26;;;;;;;;;;;22.50;94.20;;;;;;5055840;28;19912;-75
2021/09/11 12:23:12;;;;;;;;;;;22.30;94.30;;;;;;5063211;28;19913;-74
2021/09/11 12:25:45;;;;;;;;;;;22.40;94.80;;;;;;5036680;28;20339;-74
2021/09/11 12:28:29;;;;;;;;;;;22.50;94.70;;;;;;5053859;28;19912;-74
2021/09/11 12:30:54;;;;;;;;;;;22.60;94.60;;;;;;5039043;28;19921;-74
2021/09/11 12:33:19;;;;;;;;;;;22.90;94.60;;;;;;5058161;28;19977;-74
2021/09/11 12:35:45;;;;;;;;;;;23.20;93.90;;;;;;5059062;28;20310;-74
2021/09/11 12:38:10;;;;;;;;;;;23.30;92.60;;;;;;5040532;28;19985;-74
2021/09/11 12:40:36;;;;;;;;;;;23.40;92.50;;;;;;5040449;28;19921;-73
2021/09/11 12:43:03;;;;;;;;;;;23.40;92.30;;;;;;5039645;28;20463;-74
2021/09/11 12:45:28;;;;;;;;;;;23.50;92.00;;;;;;5053240;28;19916;-73
2021/09/11 12:47:54;;;;;;;;;;;23.50;91.90;;;;;;5041735;28;19923;-74
2021/09/11 12:50:21;;;;;;;;;;;23.60;92.00;;;;;;5059319;28;19916;-74
2021/09/11 12:52:46;;;;;;;;;;;23.60;91.70;;;;;;5054293;28;19999;-75
2021/09/11 12:55:12;;;;;;;;;;;23.70;92.10;;;;;;5058654;28;20320;-77
2021/09/11 12:57:37;;;;;;;;;;;23.80;91.80;;;;;;5036073;28;20365;-77
2021/09/11 13:00:03;;;;;;;;;;;23.90;91.90;;;;;;5056864;28;19912;-75
2021/09/11 13:02:28;;;;;;;;;;;23.90;91.00;;;;;;5056228;28;19917;-76
2021/09/11 13:04:56;;;;;;;;;;;23.90;91.00;;;;;;5058571;28;19926;-75
2021/09/11 13:07:22;;;;;;;;;;;24.00;91.10;;;;;;5059362;28;20289;-76
2021/09/11 13:09:47;;;;;;;;;;;24.10;90.70;;;;;;5058269;28;19931;-77
2021/09/11 13:12:12;;;;;;;;;;;24.20;89.80;;;;;;5059108;28;19916;-78
2021/09/11 13:14:38;;;;;;;;;;;24.20;89.90;;;;;;5058734;28;19928;-76
2021/09/11 13:17:04;;;;;;;;;;;24.30;90.40;;;;;;5056154;28;19930;-76
2021/09/11 13:19:30;;;;;;;;;;;24.30;90.00;;;;;;5055496;28;19920;-78
2021/09/11 13:21:55;;;;;;;;;;;24.30;90.20;;;;;;5054038;28;20339;-74
2021/09/11 13:24:21;;;;;;;;;;;24.30;89.60;;;;;;5052397;28;19917;-75
2021/09/11 13:26:48;;;;;;;;;;;24.20;89.90;;;;;;5050498;28;20011;-73
2021/09/11 13:29:13;;;;;;;;;;;24.20;90.20;;;;;;5059184;28;20094;-74
2021/09/11 13:31:39;;;;;;;;;;;24.20;89.20;;;;;;5058501;28;20090;-73
2021/09/11 13:34:04;;;;;;;;;;;24.20;88.80;;;;;;5057231;28;19916;-74
2021/09/11 13:36:29;;;;;;;;;;;24.20;89.80;;;;;;5058150;28;19931;-74
2021/09/11 13:38:55;;;;;;;;;;;24.30;89.00;;;;;;5060627;28;19912;-74
2021/09/11 13:41:21;;;;;;;;;;;24.30;88.20;;;;;;5059380;28;19923;-73
2021/09/11 13:43:47;;;;;;;;;;;24.30;88.50;;;;;;5058544;28;19908;-74
2021/09/11 13:46:14;;;;;;;;;;;24.20;88.40;;;;;;5059390;28;20108;-74
2021/09/11 13:48:40;;;;;;;;;;;24.10;88.80;;;;;;5042133;28;19920;-74
2021/09/11 13:51:06;;;;;;;;;;;23.90;88.10;;;;;;5041407;28;19912;-73
2021/09/11 13:53:31;;;;;;;;;;;23.80;88.90;;;;;;5041048;28;19991;-73
2021/09/11 13:55:57;;;;;;;;;;;23.80;89.30;;;;;;5059256;28;19913;-73
2021/09/11 13:58:23;;;;;;;;;;;23.80;89.90;;;;;;5059603;28;20000;-74
2021/09/11 14:00:48;;;;;;;;;;;23.90;90.00;;;;;;5058531;28;19958;-74
2021/09/11 14:03:14;;;;;;;;;;;24.10;89.20;;;;;;5059252;28;19936;-74
2021/09/11 14:05:39;;;;;;;;;;;24.20;88.10;;;;;;5059180;28;20428;-73
2021/09/11 14:08:06;;;;;;;;;;;24.30;86.90;;;;;;5059130;28;19917;-73
2021/09/11 14:10:32;;;;;;;;;;;24.20;86.10;;;;;;5057766;28;19955;-74
2021/09/11 14:12:57;;;;;;;;;;;24.10;87.10;;;;;;5059581;28;19948;-73